sensor_id;sensor_type;location;lat;lon;timestamp;temperature;humidity
5304;DHT22;2674;49.722;10.892;2023-08-24T00:02:07;18.10;47.30
5304;DHT22;2674;49.722;10.892;2023-08-24T00:04:33;18.00;1.00
5304;DHT22;2674;49.722;10.892;2023-08-24T00:06:59;18.00;99.90
5304;DHT22;2674;49.722;10.892;2023-08-24T00:09:26;17.90;99.90
5304;DHT22;2674;49.722;10.892;2023-08-24T00:11:52;17.80;1.00
5304;DHT22;2674;49.722;10.892;2023-08-24T00:14:18;17.80;1.00
5304;DHT22;2674;49.722;10.892;2023-08-24T00:16:45;17.70;1.00
5304;DHT22;2674;49.722;10.892;2023-08-24T00:19:10;17.70;1.00
5304;DHT22;2674;49.722;10.892;2023-08-24T00:21:36;17.70;1.00
5304;DHT22;2674;49.722;10.892;2023-08-24T00:24:03;17.70;1.00
5304;DHT22;2674;49.722;10.892;2023-08-24T00:26:29;17.70;1.00
5304;DHT22;2674;49.722;10.892;2023-08-24T00:28:54;17.70;1.00
5304;DHT22;2674;49.722;10.892;2023-08-24T00:31:20;17.60;1.00
5304;DHT22;2674;49.722;10.892;2023-08-24T00:33:46;17.60;1.00
5304;DHT22;2674;49.722;10.892;2023-08-24T00:36:26;17.50;1.00
5304;DHT22;2674;49.722;10.892;2023-08-24T00:38:52;17.40;1.00
5304;DHT22;2674;49.722;10.892;2023-08-24T00:41:19;17.50;1.00
5304;DHT22;2674;49.722;10.892;2023-08-24T00:43:46;17.40;1.00
5304;DHT22;2674;49.722;10.892;2023-08-24T00:46:13;17.40;1.00
5304;DHT22;2674;49.722;10.892;2023-08-24T00:48:39;17.30;1.00
5304;DHT22;2674;49.722;10.892;2023-08-24T00:51:04;17.30;1.00
5304;DHT22;2674;49.722;10.892;2023-08-24T00:53:31;17.30;11.10
5304;DHT22;2674;49.722;10.892;2023-08-24T00:55:58;17.30;6.30
5304;DHT22;2674;49.722;10.892;2023-08-24T00:58:24;17.20;14.30
5304;DHT22;2674;49.722;10.892;2023-08-24T01:00:52;17.20;13.20
5304;DHT22;2674;49.722;10.892;2023-08-24T01:03:18;17.20;17.70
5304;DHT22;2674;49.722;10.892;2023-08-24T01:05:44;17.20;25.10
5304;DHT22;2674;49.722;10.892;2023-08-24T01:08:11;17.20;22.70
5304;DHT22;2674;49.722;10.892;2023-08-24T01:10:47;17.20;23.20
5304;DHT22;2674;49.722;10.892;2023-08-24T01:13:21;17.20;1.00
5304;DHT22;2674;49.722;10.892;2023-08-24T01:16:00;17.10;40.50
5304;DHT22;2674;49.722;10.892;2023-08-24T01:18:30;17.10;72.60
5304;DHT22;2674;49.722;10.892;2023-08-24T01:20:57;17.00;99.90
5304;DHT22;2674;49.722;10.892;2023-08-24T01:23:34;17.00;99.90
5304;DHT22;2674;49.722;10.892;2023-08-24T01:26:10;17.00;99.90
5304;DHT22;2674;49.722;10.892;2023-08-24T01:28:36;17.00;99.90
5304;DHT22;2674;49.722;10.892;2023-08-24T01:31:06;17.00;99.90
5304;DHT22;2674;49.722;10.892;2023-08-24T01:33:33;17.00;93.00
5304;DHT22;2674;49.722;10.892;2023-08-24T01:35:59;17.00;77.70
5304;DHT22;2674;49.722;10.892;2023-08-24T01:38:25;16.90;52.40
5304;DHT22;2674;49.722;10.892;2023-08-24T01:43:40;16.90;48.90
5304;DHT22;2674;49.722;10.892;2023-08-24T01:46:07;16.80;77.00
5304;DHT22;2674;49.722;10.892;2023-08-24T01:48:34;16.80;73.50
5304;DHT22;2674;49.722;10.892;2023-08-24T01:51:01;16.70;80.10
5304;DHT22;2674;49.722;10.892;2023-08-24T01:53:30;16.70;64.20
5304;DHT22;2674;49.722;10.892;2023-08-24T01:55:56;16.70;39.20
5304;DHT22;2674;49.722;10.892;2023-08-24T01:58:22;16.70;12.80
5304;DHT22;2674;49.722;10.892;2023-08-24T02:00:47;16.70;4.20
5304;DHT22;2674;49.722;10.892;2023-08-24T02:03:13;16.70;18.50
5304;DHT22;2674;49.722;10.892;2023-08-24T02:05:39;16.70;11.80
5304;DHT22;2674;49.722;10.892;2023-08-24T02:08:05;16.60;4.70
5304;DHT22;2674;49.722;10.892;2023-08-24T02:10:31;16.60;25.50
5304;DHT22;2674;49.722;10.892;2023-08-24T02:12:57;16.50;85.00
5304;DHT22;2674;49.722;10.892;2023-08-24T02:15:22;16.50;99.90
5304;DHT22;2674;49.722;10.892;2023-08-24T02:17:51;16.50;99.90
5304;DHT22;2674;49.722;10.892;2023-08-24T02:20:17;16.50;99.90
5304;DHT22;2674;49.722;10.892;2023-08-24T02:22:43;16.50;99.90
5304;DHT22;2674;49.722;10.892;2023-08-24T02:25:09;16.40;99.90
5304;DHT22;2674;49.722;10.892;2023-08-24T02:27:35;16.40;99.90
5304;DHT22;2674;49.722;10.892;2023-08-24T02:30:01;16.40;99.90
5304;DHT22;2674;49.722;10.892;2023-08-24T02:32:27;16.50;99.90
5304;DHT22;2674;49.722;10.892;2023-08-24T02:34:53;16.40;99.90
5304;DHT22;2674;49.722;10.892;2023-08-24T02:37:18;16.40;99.90
5304;DHT22;2674;49.722;10.892;2023-08-24T02:39:44;16.30;99.90
5304;DHT22;2674;49.722;10.892;2023-08-24T02:42:10;16.30;99.90
5304;DHT22;2674;49.722;10.892;2023-08-24T02:44:36;16.30;99.90
5304;DHT22;2674;49.722;10.892;2023-08-24T02:47:02;16.30;99.90
5304;DHT22;2674;49.722;10.892;2023-08-24T02:49:27;16.30;99.90
5304;DHT22;2674;49.722;10.892;2023-08-24T02:51:53;16.30;99.90
5304;DHT22;2674;49.722;10.892;2023-08-24T02:54:19;16.20;99.90
5304;DHT22;2674;49.722;10.892;2023-08-24T02:56:45;16.20;99.90
5304;DHT22;2674;49.722;10.892;2023-08-24T02:59:11;16.20;99.90
5304;DHT22;2674;49.722;10.892;2023-08-24T03:01:37;16.20;99.90
5304;DHT22;2674;49.722;10.892;2023-08-24T03:04:04;16.20;99.90
5304;DHT22;2674;49.722;10.892;2023-08-24T03:06:31;16.20;99.90
5304;DHT22;2674;49.722;10.892;2023-08-24T03:08:57;16.20;99.90
5304;DHT22;2674;49.722;10.892;2023-08-24T03:11:23;16.10;99.90
5304;DHT22;2674;49.722;10.892;2023-08-24T03:13:49;16.10;99.90
5304;DHT22;2674;49.722;10.892;2023-08-24T03:16:14;16.10;99.90
5304;DHT22;2674;49.722;10.892;2023-08-24T03:18:43;16.10;99.90
5304;DHT22;2674;49.722;10.892;2023-08-24T03:21:09;16.10;99.90
5304;DHT22;2674;49.722;10.892;2023-08-24T03:23:35;16.10;99.90
5304;DHT22;2674;49.722;10.892;2023-08-24T03:26:01;16.10;99.90
5304;DHT22;2674;49.722;10.892;2023-08-24T03:28:27;16.00;99.90
5304;DHT22;2674;49.722;10.892;2023-08-24T03:30:53;16.00;99.90
5304;DHT22;2674;49.722;10.892;2023-08-24T03:33:21;15.90;99.90
5304;DHT22;2674;49.722;10.892;2023-08-24T03:35:47;15.90;99.90
5304;DHT22;2674;49.722;10.892;2023-08-24T03:38:13;15.90;99.90
5304;DHT22;2674;49.722;10.892;2023-08-24T03:40:39;15.90;99.90
5304;DHT22;2674;49.722;10.892;2023-08-24T03:43:05;15.90;99.90
5304;DHT22;2674;49.722;10.892;2023-08-24T03:45:31;15.90;99.90
5304;DHT22;2674;49.722;10.892;2023-08-24T03:47:57;15.90;99.90
5304;DHT22;2674;49.722;10.892;2023-08-24T03:50:23;15.90;99.90
5304;DHT22;2674;49.722;10.892;2023-08-24T03:52:53;15.90;99.90
5304;DHT22;2674;49.722;10.892;2023-08-24T03:55:20;15.90;99.90
5304;DHT22;2674;49.722;10.892;2023-08-24T03:57:46;15.80;99.90
5304;DHT22;2674;49.722;10.892;2023-08-24T04:00:12;15.70;99.90
5304;DHT22;2674;49.722;10.892;2023-08-24T04:02:43;15.60;99.90
5304;DHT22;2674;49.722;10.892;2023-08-24T04:05:09;15.60;99.90
5304;DHT22;2674;49.722;10.892;2023-08-24T04:07:35;15.60;99.90
5304;DHT22;2674;49.722;10.892;2023-08-24T04:10:06;15.60;99.90
5304;DHT22;2674;49.722;10.892;2023-08-24T04:12:32;15.50;99.90
5304;DHT22;2674;49.722;10.892;2023-08-24T04:14:58;15.50;99.90
5304;DHT22;2674;49.722;10.892;2023-08-24T04:17:25;15.50;99.90
5304;DHT22;2674;49.722;10.892;2023-08-24T04:19:50;15.40;99.90
5304;DHT22;2674;49.722;10.892;2023-08-24T04:22:16;15.40;99.90
5304;DHT22;2674;49.722;10.892;2023-08-24T04:24:42;15.40;99.90
5304;DHT22;2674;49.722;10.892;2023-08-24T04:27:08;15.40;99.90
5304;DHT22;2674;49.722;10.892;2023-08-24T04:29:34;15.40;99.90
5304;DHT22;2674;49.722;10.892;2023-08-24T04:31:59;15.40;99.90
5304;DHT22;2674;49.722;10.892;2023-08-24T04:34:25;15.40;99.90
5304;DHT22;2674;49.722;10.892;2023-08-24T04:36:51;15.50;99.90
5304;DHT22;2674;49.722;10.892;2023-08-24T04:39:17;15.50;99.90
5304;DHT22;2674;49.722;10.892;2023-08-24T04:41:44;15.50;99.90
5304;DHT22;2674;49.722;10.892;2023-08-24T04:44:10;15.50;99.90
5304;DHT22;2674;49.722;10.892;2023-08-24T04:46:36;15.60;99.90
5304;DHT22;2674;49.722;10.892;2023-08-24T04:49:02;15.60;99.90
5304;DHT22;2674;49.722;10.892;2023-08-24T04:51:30;15.70;99.90
5304;DHT22;2674;49.722;10.892;2023-08-24T04:53:55;15.70;99.90
5304;DHT22;2674;49.722;10.892;2023-08-24T04:56:21;15.70;99.90
5304;DHT22;2674;49.722;10.892;2023-08-24T04:58:54;15.80;99.90
5304;DHT22;2674;49.722;10.892;2023-08-24T05:01:25;15.80;99.90
5304;DHT22;2674;49.722;10.892;2023-08-24T05:03:54;15.80;99.90
5304;DHT22;2674;49.722;10.892;2023-08-24T05:06:22;15.90;99.90
5304;DHT22;2674;49.722;10.892;2023-08-24T05:08:48;15.90;99.90
5304;DHT22;2674;49.722;10.892;2023-08-24T05:11:19;15.90;99.90
5304;DHT22;2674;49.722;10.892;2023-08-24T05:13:48;16.00;99.90
5304;DHT22;2674;49.722;10.892;2023-08-24T05:16:14;16.10;99.90
5304;DHT22;2674;49.722;10.892;2023-08-24T05:18:40;16.20;99.90
5304;DHT22;2674;49.722;10.892;2023-08-24T05:21:06;16.40;99.90
5304;DHT22;2674;49.722;10.892;2023-08-24T05:23:33;16.50;99.90
5304;DHT22;2674;49.722;10.892;2023-08-24T05:26:00;16.70;99.90
5304;DHT22;2674;49.722;10.892;2023-08-24T05:28:27;16.80;99.90
5304;DHT22;2674;49.722;10.892;2023-08-24T05:30:53;17.00;99.90
5304;DHT22;2674;49.722;10.892;2023-08-24T05:33:20;17.10;99.90
5304;DHT22;2674;49.722;10.892;2023-08-24T05:35:47;17.20;99.90
5304;DHT22;2674;49.722;10.892;2023-08-24T05:38:16;17.40;99.90
5304;DHT22;2674;49.722;10.892;2023-08-24T05:40:43;17.50;99.90
5304;DHT22;2674;49.722;10.892;2023-08-24T05:43:12;17.70;99.90
5304;DHT22;2674;49.722;10.892;2023-08-24T05:45:38;17.80;99.90
5304;DHT22;2674;49.722;10.892;2023-08-24T05:48:10;18.00;93.40
5304;DHT22;2674;49.722;10.892;2023-08-24T05:50:36;18.20;91.10
5304;DHT22;2674;49.722;10.892;2023-08-24T05:53:03;18.20;63.40
5304;DHT22;2674;49.722;10.892;2023-08-24T05:55:29;18.40;78.00
5304;DHT22;2674;49.722;10.892;2023-08-24T05:57:55;18.50;37.90
5304;DHT22;2674;49.722;10.892;2023-08-24T06:00:21;18.70;18.90
5304;DHT22;2674;49.722;10.892;2023-08-24T06:02:48;18.80;11.10
5304;DHT22;2674;49.722;10.892;2023-08-24T06:05:14;18.80;20.10
5304;DHT22;2674;49.722;10.892;2023-08-24T06:07:40;18.80;13.30
5304;DHT22;2674;49.722;10.892;2023-08-24T06:10:06;18.60;15.30
5304;DHT22;2674;49.722;10.892;2023-08-24T06:12:32;18.50;1.00
5304;DHT22;2674;49.722;10.892;2023-08-24T06:14:58;18.20;48.30
5304;DHT22;2674;49.722;10.892;2023-08-24T06:17:24;18.00;40.30
5304;DHT22;2674;49.722;10.892;2023-08-24T06:19:50;17.80;99.90
5304;DHT22;2674;49.722;10.892;2023-08-24T06:22:15;17.80;99.90
5304;DHT22;2674;49.722;10.892;2023-08-24T06:24:41;17.80;99.90
5304;DHT22;2674;49.722;10.892;2023-08-24T06:27:07;17.70;99.90
5304;DHT22;2674;49.722;10.892;2023-08-24T06:29:34;17.80;99.90
5304;DHT22;2674;49.722;10.892;2023-08-24T06:32:00;17.90;99.90
5304;DHT22;2674;49.722;10.892;2023-08-24T06:34:25;18.00;99.90
5304;DHT22;2674;49.722;10.892;2023-08-24T06:36:53;18.30;99.90
5304;DHT22;2674;49.722;10.892;2023-08-24T06:39:19;18.60;96.40
5304;DHT22;2674;49.722;10.892;2023-08-24T06:41:45;18.80;35.40
5304;DHT22;2674;49.722;10.892;2023-08-24T06:44:11;19.10;1.00
5304;DHT22;2674;49.722;10.892;2023-08-24T06:46:37;19.30;1.00
5304;DHT22;2674;49.722;10.892;2023-08-24T06:49:02;19.40;1.00
5304;DHT22;2674;49.722;10.892;2023-08-24T06:51:28;19.40;1.00
5304;DHT22;2674;49.722;10.892;2023-08-24T06:53:54;19.50;1.00
5304;DHT22;2674;49.722;10.892;2023-08-24T06:56:20;19.50;1.00
5304;DHT22;2674;49.722;10.892;2023-08-24T06:58:48;19.60;1.00
5304;DHT22;2674;49.722;10.892;2023-08-24T07:01:14;19.70;1.00
5304;DHT22;2674;49.722;10.892;2023-08-24T07:03:40;19.80;1.00
5304;DHT22;2674;49.722;10.892;2023-08-24T07:06:06;19.90;1.00
5304;DHT22;2674;49.722;10.892;2023-08-24T07:08:38;19.90;1.00
5304;DHT22;2674;49.722;10.892;2023-08-24T07:11:04;19.90;1.00
5304;DHT22;2674;49.722;10.892;2023-08-24T07:13:29;19.90;1.00
5304;DHT22;2674;49.722;10.892;2023-08-24T07:15:55;20.00;1.00
5304;DHT22;2674;49.722;10.892;2023-08-24T07:18:21;20.10;1.00
5304;DHT22;2674;49.722;10.892;2023-08-24T07:20:47;20.00;1.00
5304;DHT22;2674;49.722;10.892;2023-08-24T07:23:13;20.10;1.00
5304;DHT22;2674;49.722;10.892;2023-08-24T07:25:39;20.20;1.00
5304;DHT22;2674;49.722;10.892;2023-08-24T07:28:05;20.20;1.00
5304;DHT22;2674;49.722;10.892;2023-08-24T07:30:32;20.30;1.00
5304;DHT22;2674;49.722;10.892;2023-08-24T07:32:57;20.30;1.00
5304;DHT22;2674;49.722;10.892;2023-08-24T07:35:23;20.40;1.00
5304;DHT22;2674;49.722;10.892;2023-08-24T07:37:53;20.50;1.00
5304;DHT22;2674;49.722;10.892;2023-08-24T07:40:19;20.60;1.00
5304;DHT22;2674;49.722;10.892;2023-08-24T07:42:50;20.70;1.00
5304;DHT22;2674;49.722;10.892;2023-08-24T07:45:18;20.80;1.00
5304;DHT22;2674;49.722;10.892;2023-08-24T07:47:45;20.90;1.00
5304;DHT22;2674;49.722;10.892;2023-08-24T07:50:11;21.00;99.90
5304;DHT22;2674;49.722;10.892;2023-08-24T07:52:41;21.10;99.90
5304;DHT22;2674;49.722;10.892;2023-08-24T07:55:07;21.20;1.00
5304;DHT22;2674;49.722;10.892;2023-08-24T07:57:34;21.40;1.00
5304;DHT22;2674;49.722;10.892;2023-08-24T08:00:00;21.40;99.90
5304;DHT22;2674;49.722;10.892;2023-08-24T08:02:25;21.50;16.80
5304;DHT22;2674;49.722;10.892;2023-08-24T08:04:56;21.60;1.00
5304;DHT22;2674;49.722;10.892;2023-08-24T08:07:23;21.80;99.90
5304;DHT22;2674;49.722;10.892;2023-08-24T08:09:49;22.00;99.90
5304;DHT22;2674;49.722;10.892;2023-08-24T08:12:15;22.10;1.00
5304;DHT22;2674;49.722;10.892;2023-08-24T08:14:41;22.30;1.00
5304;DHT22;2674;49.722;10.892;2023-08-24T08:17:07;22.40;1.00
5304;DHT22;2674;49.722;10.892;2023-08-24T08:19:32;22.60;1.00
5304;DHT22;2674;49.722;10.892;2023-08-24T08:22:01;22.80;99.90
5304;DHT22;2674;49.722;10.892;2023-08-24T08:24:27;22.90;99.90
5304;DHT22;2674;49.722;10.892;2023-08-24T08:26:53;23.00;99.90
5304;DHT22;2674;49.722;10.892;2023-08-24T08:29:19;23.20;99.90
5304;DHT22;2674;49.722;10.892;2023-08-24T08:31:45;23.30;99.90
5304;DHT22;2674;49.722;10.892;2023-08-24T08:34:11;23.40;99.90
5304;DHT22;2674;49.722;10.892;2023-08-24T08:36:37;23.30;99.90
5304;DHT22;2674;49.722;10.892;2023-08-24T08:39:03;23.40;1.00
5304;DHT22;2674;49.722;10.892;2023-08-24T08:41:33;23.60;99.90
5304;DHT22;2674;49.722;10.892;2023-08-24T08:44:05;23.80;90.60
5304;DHT22;2674;49.722;10.892;2023-08-24T08:46:32;24.00;1.00
5304;DHT22;2674;49.722;10.892;2023-08-24T08:49:00;24.10;1.00
5304;DHT22;2674;49.722;10.892;2023-08-24T08:51:27;24.30;1.00
5304;DHT22;2674;49.722;10.892;2023-08-24T08:53:53;24.60;1.00
5304;DHT22;2674;49.722;10.892;2023-08-24T08:56:20;24.60;1.00
5304;DHT22;2674;49.722;10.892;2023-08-24T08:58:47;24.80;1.00
5304;DHT22;2674;49.722;10.892;2023-08-24T09:01:14;24.70;1.00
5304;DHT22;2674;49.722;10.892;2023-08-24T09:03:41;24.80;1.00
5304;DHT22;2674;49.722;10.892;2023-08-24T09:06:09;24.90;1.00
5304;DHT22;2674;49.722;10.892;2023-08-24T09:08:35;24.90;1.00
5304;DHT22;2674;49.722;10.892;2023-08-24T09:11:00;24.90;1.00
5304;DHT22;2674;49.722;10.892;2023-08-24T09:13:26;24.80;1.00
5304;DHT22;2674;49.722;10.892;2023-08-24T09:15:52;24.80;1.00
5304;DHT22;2674;49.722;10.892;2023-08-24T09:18:21;24.70;1.00
5304;DHT22;2674;49.722;10.892;2023-08-24T09:20:48;24.60;1.00
5304;DHT22;2674;49.722;10.892;2023-08-24T09:23:20;24.60;1.00
5304;DHT22;2674;49.722;10.892;2023-08-24T09:25:46;24.60;1.00
5304;DHT22;2674;49.722;10.892;2023-08-24T09:28:22;24.60;1.00
5304;DHT22;2674;49.722;10.892;2023-08-24T09:30:53;24.50;1.00
5304;DHT22;2674;49.722;10.892;2023-08-24T09:33:20;24.60;1.00
5304;DHT22;2674;49.722;10.892;2023-08-24T09:35:53;24.70;1.00
5304;DHT22;2674;49.722;10.892;2023-08-24T09:38:27;24.80;1.00
5304;DHT22;2674;49.722;10.892;2023-08-24T09:40:55;24.90;1.00
5304;DHT22;2674;49.722;10.892;2023-08-24T09:43:21;25.10;1.00
5304;DHT22;2674;49.722;10.892;2023-08-24T09:45:55;25.30;1.00
5304;DHT22;2674;49.722;10.892;2023-08-24T09:48:22;25.50;1.00
5304;DHT22;2674;49.722;10.892;2023-08-24T09:50:51;25.60;1.00
5304;DHT22;2674;49.722;10.892;2023-08-24T09:53:21;25.80;1.00
5304;DHT22;2674;49.722;10.892;2023-08-24T09:56:00;26.10;1.00
5304;DHT22;2674;49.722;10.892;2023-08-24T09:58:27;26.20;1.00
5304;DHT22;2674;49.722;10.892;2023-08-24T10:00:53;26.30;1.00
5304;DHT22;2674;49.722;10.892;2023-08-24T10:03:21;26.30;1.00
5304;DHT22;2674;49.722;10.892;2023-08-24T10:06:06;26.50;1.00
5304;DHT22;2674;49.722;10.892;2023-08-24T10:08:37;26.80;1.00
5304;DHT22;2674;49.722;10.892;2023-08-24T10:11:05;26.80;1.00
5304;DHT22;2674;49.722;10.892;2023-08-24T10:13:44;27.00;1.00
5304;DHT22;2674;49.722;10.892;2023-08-24T10:16:14;27.20;1.00
5304;DHT22;2674;49.722;10.892;2023-08-24T10:18:42;27.30;1.00
5304;DHT22;2674;49.722;10.892;2023-08-24T10:21:08;27.40;1.00
5304;DHT22;2674;49.722;10.892;2023-08-24T10:23:37;27.50;1.00
5304;DHT22;2674;49.722;10.892;2023-08-24T10:26:06;27.30;1.00
5304;DHT22;2674;49.722;10.892;2023-08-24T10:28:32;27.50;1.00
5304;DHT22;2674;49.722;10.892;2023-08-24T10:30:59;27.60;1.00
5304;DHT22;2674;49.722;10.892;2023-08-24T10:33:27;27.70;1.00
5304;DHT22;2674;49.722;10.892;2023-08-24T10:35:53;27.80;1.00
5304;DHT22;2674;49.722;10.892;2023-08-24T10:38:29;27.90;1.00
5304;DHT22;2674;49.722;10.892;2023-08-24T10:41:02;28.10;1.00
5304;DHT22;2674;49.722;10.892;2023-08-24T10:43:35;28.30;1.00
5304;DHT22;2674;49.722;10.892;2023-08-24T10:46:02;28.30;99.90
5304;DHT22;2674;49.722;10.892;2023-08-24T10:51:23;28.60;99.90
5304;DHT22;2674;49.722;10.892;2023-08-24T10:53:53;28.60;99.90
5304;DHT22;2674;49.722;10.892;2023-08-24T10:56:20;28.70;99.90
5304;DHT22;2674;49.722;10.892;2023-08-24T10:58:47;28.60;99.90
5304;DHT22;2674;49.722;10.892;2023-08-24T11:01:17;28.50;99.90
5304;DHT22;2674;49.722;10.892;2023-08-24T11:03:49;28.70;99.90
5304;DHT22;2674;49.722;10.892;2023-08-24T11:06:26;28.80;99.90
5304;DHT22;2674;49.722;10.892;2023-08-24T11:09:07;29.10;99.90
5304;DHT22;2674;49.722;10.892;2023-08-24T11:11:40;29.50;99.90
5304;DHT22;2674;49.722;10.892;2023-08-24T11:14:16;29.70;99.90
5304;DHT22;2674;49.722;10.892;2023-08-24T11:16:46;29.90;99.90
5304;DHT22;2674;49.722;10.892;2023-08-24T11:19:13;30.00;99.90
5304;DHT22;2674;49.722;10.892;2023-08-24T11:21:40;30.00;99.90
5304;DHT22;2674;49.722;10.892;2023-08-24T11:24:06;29.80;99.90
5304;DHT22;2674;49.722;10.892;2023-08-24T11:26:34;29.90;99.90
5304;DHT22;2674;49.722;10.892;2023-08-24T11:29:00;30.20;99.90
5304;DHT22;2674;49.722;10.892;2023-08-24T11:31:29;30.30;99.90
5304;DHT22;2674;49.722;10.892;2023-08-24T11:33:55;30.50;99.90
5304;DHT22;2674;49.722;10.892;2023-08-24T11:36:22;30.60;99.90
5304;DHT22;2674;49.722;10.892;2023-08-24T11:38:53;30.60;99.90
5304;DHT22;2674;49.722;10.892;2023-08-24T11:41:21;30.50;99.90
5304;DHT22;2674;49.722;10.892;2023-08-24T11:43:49;30.50;99.90
5304;DHT22;2674;49.722;10.892;2023-08-24T11:46:19;30.50;99.90
5304;DHT22;2674;49.722;10.892;2023-08-24T11:48:45;30.60;99.90
5304;DHT22;2674;49.722;10.892;2023-08-24T11:51:12;30.80;99.90
5304;DHT22;2674;49.722;10.892;2023-08-24T11:53:43;31.00;99.90
5304;DHT22;2674;49.722;10.892;2023-08-24T11:56:13;31.10;99.90
5304;DHT22;2674;49.722;10.892;2023-08-24T11:58:40;31.10;99.90
5304;DHT22;2674;49.722;10.892;2023-08-24T12:01:10;31.20;99.90
5304;DHT22;2674;49.722;10.892;2023-08-24T12:03:37;31.20;99.90
5304;DHT22;2674;49.722;10.892;2023-08-24T12:06:11;31.10;99.90
5304;DHT22;2674;49.722;10.892;2023-08-24T12:08:39;31.10;99.90
5304;DHT22;2674;49.722;10.892;2023-08-24T12:11:11;31.10;99.90
5304;DHT22;2674;49.722;10.892;2023-08-24T12:13:36;31.10;99.90
5304;DHT22;2674;49.722;10.892;2023-08-24T12:16:02;30.90;99.90
5304;DHT22;2674;49.722;10.892;2023-08-24T12:18:30;31.00;99.90
5304;DHT22;2674;49.722;10.892;2023-08-24T12:20:59;31.10;99.90
5304;DHT22;2674;49.722;10.892;2023-08-24T12:23:27;31.10;99.90
5304;DHT22;2674;49.722;10.892;2023-08-24T12:25:54;31.10;99.90
5304;DHT22;2674;49.722;10.892;2023-08-24T12:28:21;31.10;99.90
5304;DHT22;2674;49.722;10.892;2023-08-24T12:33:33;31.00;99.90
5304;DHT22;2674;49.722;10.892;2023-08-24T12:35:59;31.00;99.90
5304;DHT22;2674;49.722;10.892;2023-08-24T12:38:26;31.00;99.90
5304;DHT22;2674;49.722;10.892;2023-08-24T12:40:52;30.80;99.90
5304;DHT22;2674;49.722;10.892;2023-08-24T12:43:18;30.80;99.90
5304;DHT22;2674;49.722;10.892;2023-08-24T12:45:44;30.90;99.90
5304;DHT22;2674;49.722;10.892;2023-08-24T12:48:10;30.70;99.90
5304;DHT22;2674;49.722;10.892;2023-08-24T12:50:38;30.60;99.90
5304;DHT22;2674;49.722;10.892;2023-08-24T12:53:04;30.60;99.90
5304;DHT22;2674;49.722;10.892;2023-08-24T12:55:32;30.80;99.90
5304;DHT22;2674;49.722;10.892;2023-08-24T12:57:59;30.80;99.90
5304;DHT22;2674;49.722;10.892;2023-08-24T13:00:25;31.00;99.90
5304;DHT22;2674;49.722;10.892;2023-08-24T13:02:52;31.20;99.90
5304;DHT22;2674;49.722;10.892;2023-08-24T13:05:18;31.20;99.90
5304;DHT22;2674;49.722;10.892;2023-08-24T13:07:44;31.20;99.90
5304;DHT22;2674;49.722;10.892;2023-08-24T13:10:10;31.20;99.90
5304;DHT22;2674;49.722;10.892;2023-08-24T13:12:38;31.10;99.90
5304;DHT22;2674;49.722;10.892;2023-08-24T13:15:04;31.30;99.90
5304;DHT22;2674;49.722;10.892;2023-08-24T13:17:31;31.30;99.90
5304;DHT22;2674;49.722;10.892;2023-08-24T13:19:57;31.30;99.90
5304;DHT22;2674;49.722;10.892;2023-08-24T13:22:23;31.30;99.90
5304;DHT22;2674;49.722;10.892;2023-08-24T13:24:49;31.20;99.90
5304;DHT22;2674;49.722;10.892;2023-08-24T13:27:15;31.30;99.90
5304;DHT22;2674;49.722;10.892;2023-08-24T13:29:41;31.50;99.90
5304;DHT22;2674;49.722;10.892;2023-08-24T13:32:07;31.70;99.90
5304;DHT22;2674;49.722;10.892;2023-08-24T13:34:33;31.80;99.90
5304;DHT22;2674;49.722;10.892;2023-08-24T13:36:59;31.90;99.90
5304;DHT22;2674;49.722;10.892;2023-08-24T13:39:28;31.80;99.90
5304;DHT22;2674;49.722;10.892;2023-08-24T13:41:58;31.60;99.90
5304;DHT22;2674;49.722;10.892;2023-08-24T13:44:25;31.30;99.90
5304;DHT22;2674;49.722;10.892;2023-08-24T13:46:51;31.30;99.90
5304;DHT22;2674;49.722;10.892;2023-08-24T13:49:18;31.20;99.90
5304;DHT22;2674;49.722;10.892;2023-08-24T13:51:44;31.10;99.90
5304;DHT22;2674;49.722;10.892;2023-08-24T13:54:17;30.90;99.90
5304;DHT22;2674;49.722;10.892;2023-08-24T13:56:45;30.70;99.90
5304;DHT22;2674;49.722;10.892;2023-08-24T13:59:11;30.70;99.90
5304;DHT22;2674;49.722;10.892;2023-08-24T14:01:37;30.70;99.90
5304;DHT22;2674;49.722;10.892;2023-08-24T14:04:03;30.70;99.90
5304;DHT22;2674;49.722;10.892;2023-08-24T14:06:30;30.70;99.90
5304;DHT22;2674;49.722;10.892;2023-08-24T14:08:57;30.50;99.90
5304;DHT22;2674;49.722;10.892;2023-08-24T14:11:23;30.60;99.90
5304;DHT22;2674;49.722;10.892;2023-08-24T14:13:49;30.50;99.90
5304;DHT22;2674;49.722;10.892;2023-08-24T14:16:16;30.60;99.90
5304;DHT22;2674;49.722;10.892;2023-08-24T14:18:42;30.50;99.90
5304;DHT22;2674;49.722;10.892;2023-08-24T14:21:08;30.60;99.90
5304;DHT22;2674;49.722;10.892;2023-08-24T14:23:35;30.70;99.90
5304;DHT22;2674;49.722;10.892;2023-08-24T14:26:01;30.90;99.90
5304;DHT22;2674;49.722;10.892;2023-08-24T14:31:12;31.00;99.90
5304;DHT22;2674;49.722;10.892;2023-08-24T14:33:38;31.10;99.90
5304;DHT22;2674;49.722;10.892;2023-08-24T14:36:04;31.10;99.90
5304;DHT22;2674;49.722;10.892;2023-08-24T14:38:30;31.10;99.90
5304;DHT22;2674;49.722;10.892;2023-08-24T14:40:55;31.00;99.90
5304;DHT22;2674;49.722;10.892;2023-08-24T14:43:21;31.00;99.90
5304;DHT22;2674;49.722;10.892;2023-08-24T14:45:47;31.10;99.90
5304;DHT22;2674;49.722;10.892;2023-08-24T14:48:13;31.10;99.90
5304;DHT22;2674;49.722;10.892;2023-08-24T14:50:39;31.20;99.90
5304;DHT22;2674;49.722;10.892;2023-08-24T14:53:05;31.20;99.90
5304;DHT22;2674;49.722;10.892;2023-08-24T14:55:31;31.10;99.90
5304;DHT22;2674;49.722;10.892;2023-08-24T14:57:57;31.20;99.90
5304;DHT22;2674;49.722;10.892;2023-08-24T15:00:24;31.40;99.90
5304;DHT22;2674;49.722;10.892;2023-08-24T15:02:51;31.30;99.90
5304;DHT22;2674;49.722;10.892;2023-08-24T15:05:16;31.30;99.90
5304;DHT22;2674;49.722;10.892;2023-08-24T15:07:42;31.30;99.90
5304;DHT22;2674;49.722;10.892;2023-08-24T15:10:08;31.30;99.90
5304;DHT22;2674;49.722;10.892;2023-08-24T15:12:34;31.20;99.90
5304;DHT22;2674;49.722;10.892;2023-08-24T15:15:01;31.10;99.90
5304;DHT22;2674;49.722;10.892;2023-08-24T15:17:31;31.00;99.90
5304;DHT22;2674;49.722;10.892;2023-08-24T15:19:58;30.90;99.90
5304;DHT22;2674;49.722;10.892;2023-08-24T15:22:26;30.90;99.90
5304;DHT22;2674;49.722;10.892;2023-08-24T15:24:55;30.80;99.90
5304;DHT22;2674;49.722;10.892;2023-08-24T15:27:21;30.80;99.90
5304;DHT22;2674;49.722;10.892;2023-08-24T15:29:47;30.80;99.90
5304;DHT22;2674;49.722;10.892;2023-08-24T15:32:13;30.70;99.90
5304;DHT22;2674;49.722;10.892;2023-08-24T15:34:41;30.70;99.90
5304;DHT22;2674;49.722;10.892;2023-08-24T15:37:07;30.70;99.90
5304;DHT22;2674;49.722;10.892;2023-08-24T15:39:36;30.60;99.90
5304;DHT22;2674;49.722;10.892;2023-08-24T15:42:07;30.70;99.90
5304;DHT22;2674;49.722;10.892;2023-08-24T15:44:33;30.60;99.90
5304;DHT22;2674;49.722;10.892;2023-08-24T15:47:00;30.60;99.90
5304;DHT22;2674;49.722;10.892;2023-08-24T15:49:25;30.60;99.90
5304;DHT22;2674;49.722;10.892;2023-08-24T15:51:52;30.40;99.90
5304;DHT22;2674;49.722;10.892;2023-08-24T15:54:18;30.40;99.90
5304;DHT22;2674;49.722;10.892;2023-08-24T15:56:44;30.30;99.90
5304;DHT22;2674;49.722;10.892;2023-08-24T15:59:11;30.20;99.90
5304;DHT22;2674;49.722;10.892;2023-08-24T16:01:38;30.20;99.90